Time;durP1;ratioP1;P1;durP2;ratioP2;P2;SDS_P1;SDS_P2;PMS_P1;PMS_P2;Temp;Humidity;BMP_temperature;BMP_pressure;BME280_temperature;BME280_humidity;BME280_pressure;Samples;Min_cycle;Max_cycle;Signal;HPM_P1;HPM_P2
2022/05/05 00:00:20;;;;;;;6.20;2.38;;;11.70;67.40;;;;;;2088290;28;20048;-90
2022/05/05 00:01:21;;;;;;;5.05;2.38;;;11.70;67.40;;;;;;2069379;28;20034;-89
2022/05/05 00:02:21;;;;;;;6.22;2.38;;;11.70;67.40;;;;;;2073551;28;20030;-89
2022/05/05 00:03:22;;;;;;;3.97;2.00;;;11.70;67.40;;;;;;2082056;28;20045;-90
2022/05/05 00:04:22;;;;;;;3.65;2.15;;;11.80;67.40;;;;;;2080949;28;20033;-88
2022/05/05 00:05:23;;;;;;;7.10;2.38;;;11.80;67.50;;;;;;2077227;28;20045;-89
2022/05/05 00:06:24;;;;;;;4.55;2.30;;;11.80;67.50;;;;;;2072120;28;20026;-89
2022/05/05 00:07:25;;;;;;;4.45;2.00;;;11.80;67.50;;;;;;2065647;28;20033;-88
2022/05/05 00:08:25;;;;;;;4.35;2.20;;;11.80;67.40;;;;;;2071348;28;20057;-89
2022/05/05 00:09:26;;;;;;;4.10;2.10;;;11.80;67.40;;;;;;2074484;28;20038;-89
2022/05/05 00:14:24;;;;;;;3.53;2.10;;;11.90;67.30;;;;;;2085384;28;20068;-89
2022/05/05 00:15:25;;;;;;;5.22;1.95;;;11.90;67.30;;;;;;2076738;28;20144;-88
2022/05/05 00:16:27;;;;;;;4.22;2.47;;;11.90;67.20;;;;;;2080569;28;20033;-89
2022/05/05 00:17:27;;;;;;;3.95;2.40;;;11.90;67.30;;;;;;2081462;28;20057;-89
2022/05/05 00:18:28;;;;;;;5.10;2.50;;;11.90;67.30;;;;;;2081891;28;20029;-89
2022/05/05 00:19:30;;;;;;;4.80;2.35;;;11.90;67.30;;;;;;2080918;28;20883;-89
2022/05/05 00:20:31;;;;;;;6.10;2.47;;;11.90;67.40;;;;;;2081269;28;20034;-89
2022/05/05 00:21:32;;;;;;;5.47;2.65;;;11.90;67.50;;;;;;2071036;28;20105;-89
2022/05/05 00:22:32;;;;;;;3.53;2.00;;;11.90;67.40;;;;;;2067637;28;20057;-89
2022/05/05 00:23:33;;;;;;;4.75;2.38;;;11.90;67.40;;;;;;2077224;28;20473;-89
2022/05/05 00:24:34;;;;;;;4.30;2.20;;;11.90;67.40;;;;;;2074739;28;20128;-89
2022/05/05 00:25:34;;;;;;;3.33;2.10;;;11.90;67.40;;;;;;2073016;28;20385;-89
2022/05/05 00:26:35;;;;;;;6.05;2.38;;;11.90;67.40;;;;;;2078748;28;20033;-89
2022/05/05 00:27:36;;;;;;;4.18;2.58;;;11.90;67.40;;;;;;2089521;28;20036;-88
2022/05/05 00:28:37;;;;;;;5.35;2.63;;;11.90;67.50;;;;;;2084376;28;20033;-88
2022/05/05 00:29:37;;;;;;;4.57;2.17;;;11.90;67.50;;;;;;2078475;28;20018;-89
2022/05/05 00:30:38;;;;;;;4.28;2.22;;;11.80;67.50;;;;;;2072131;28;20519;-89
2022/05/05 00:31:39;;;;;;;4.78;2.40;;;11.80;67.50;;;;;;2077655;28;20124;-89
2022/05/05 00:32:39;;;;;;;4.28;2.30;;;11.80;67.50;;;;;;2076452;28;20026;-89
2022/05/05 00:33:40;;;;;;;4.40;2.38;;;11.80;67.60;;;;;;2075922;28;20512;-89
2022/05/05 00:34:40;;;;;;;3.83;2.10;;;11.80;67.60;;;;;;2070987;28;20038;-89
2022/05/05 00:35:41;;;;;;;3.90;2.20;;;11.80;67.70;;;;;;2081352;28;20083;-88
2022/05/05 00:36:42;;;;;;;4.60;2.30;;;11.80;67.70;;;;;;2078801;28;20034;-88
2022/05/05 00:37:43;;;;;;;4.63;2.03;;;11.80;67.70;;;;;;2070711;28;20023;-89
2022/05/05 00:38:43;;;;;;;3.67;2.20;;;11.80;67.80;;;;;;2065109;28;20456;-89
2022/05/05 00:39:44;;;;;;;3.97;2.17;;;11.80;67.90;;;;;;2062708;28;20034;-89
2022/05/05 00:40:44;;;;;;;5.30;2.30;;;11.80;68.00;;;;;;2057221;28;20060;-86
2022/05/05 00:41:47;;;;;;;4.18;2.10;;;11.80;68.10;;;;;;2052314;28;20031;-88
2022/05/05 00:42:47;;;;;;;3.90;2.58;;;11.70;68.10;;;;;;2075687;28;20093;-88
2022/05/05 00:43:48;;;;;;;5.55;2.08;;;11.70;68.10;;;;;;2072644;28;20137;-89
2022/05/05 00:44:49;;;;;;;3.30;2.10;;;11.70;68.20;;;;;;2066770;28;20026;-89
2022/05/05 00:45:49;;;;;;;4.15;2.20;;;11.70;68.30;;;;;;2081391;28;20022;-89
2022/05/05 00:46:51;;;;;;;5.05;2.20;;;11.70;68.30;;;;;;2074805;28;20415;-88
2022/05/05 00:47:52;;;;;;;4.38;2.22;;;11.60;68.40;;;;;;2078350;28;20758;-89
2022/05/05 00:48:52;;;;;;;3.47;2.00;;;11.70;68.60;;;;;;2078063;28;20037;-89
2022/05/05 00:49:53;;;;;;;5.03;2.00;;;11.60;68.60;;;;;;2070752;28;20044;-89
2022/05/05 00:50:55;;;;;;;3.85;2.00;;;11.60;68.70;;;;;;2070860;28;20121;-89
2022/05/05 00:51:58;;;;;;;5.00;2.05;;;11.60;68.80;;;;;;2077367;28;20530;-88
2022/05/05 00:52:59;;;;;;;4.40;2.03;;;11.60;68.80;;;;;;2089785;28;20037;-89
2022/05/05 00:54:00;;;;;;;4.43;2.15;;;11.60;68.80;;;;;;2083724;28;20030;-89
2022/05/05 00:55:01;;;;;;;4.43;2.00;;;11.60;68.80;;;;;;2069633;28;20034;-89
2022/05/05 00:56:14;;;;;;;4.45;2.10;;;11.60;68.90;;;;;;2070532;28;20084;-88
2022/05/05 00:57:15;;;;;;;5.07;2.10;;;11.50;68.90;;;;;;2073582;28;20037;-89
2022/05/05 00:58:15;;;;;;;4.93;1.92;;;11.50;68.90;;;;;;2077269;28;20443;-89
2022/05/05 00:59:16;;;;;;;4.47;2.38;;;11.50;68.90;;;;;;2070271;28;20060;-89
2022/05/05 01:00:17;;;;;;;5.22;2.20;;;11.50;69.00;;;;;;2073153;28;20049;-88
2022/05/05 01:01:19;;;;;;;5.07;2.08;;;11.50;69.00;;;;;;2078328;28;20029;-89
2022/05/05 01:02:20;;;;;;;5.07;2.05;;;11.50;69.00;;;;;;2080449;28;20033;-89
2022/05/05 01:03:23;;;;;;;4.82;2.30;;;11.50;69.00;;;;;;2089344;28;20558;-89
2022/05/05 01:04:25;;;;;;;4.60;2.22;;;11.50;69.10;;;;;;2068859;28;20030;-88
2022/05/05 01:05:28;;;;;;;4.40;2.17;;;11.40;69.00;;;;;;2072017;28;20117;-89
2022/05/05 01:06:30;;;;;;;4.53;2.30;;;11.40;69.20;;;;;;2085340;28;20036;-89
2022/05/05 01:07:30;;;;;;;5.78;2.40;;;11.40;69.20;;;;;;2074254;28;20040;-89
2022/05/05 01:08:33;;;;;;;6.60;2.22;;;11.40;69.30;;;;;;2074070;28;20554;-89
2022/05/05 01:09:34;;;;;;;4.15;2.20;;;11.40;69.30;;;;;;2073123;28;20160;-89
2022/05/05 01:10:34;;;;;;;5.15;2.60;;;11.30;69.40;;;;;;2080650;28;20045;-89
2022/05/05 01:11:35;;;;;;;4.55;2.42;;;11.30;69.40;;;;;;2077111;28;20480;-89
2022/05/05 01:12:36;;;;;;;4.15;2.30;;;11.30;69.50;;;;;;2062637;28;20069;-89
2022/05/05 01:13:38;;;;;;;4.53;2.35;;;11.30;69.60;;;;;;2072514;28;20033;-89
2022/05/05 01:14:38;;;;;;;4.38;2.20;;;11.30;69.60;;;;;;2088182;28;20021;-88
2022/05/05 01:15:39;;;;;;;4.60;2.40;;;11.30;69.60;;;;;;2081230;28;20031;-88
2022/05/05 01:16:40;;;;;;;4.60;2.38;;;11.20;69.70;;;;;;2079528;28;20041;-89
2022/05/05 01:17:41;;;;;;;2.97;2.08;;;11.20;69.80;;;;;;2086342;28;20065;-89
2022/05/05 01:18:42;;;;;;;4.75;2.38;;;11.20;69.80;;;;;;2083155;28;20243;-88
2022/05/05 01:19:43;;;;;;;4.43;2.50;;;11.20;69.90;;;;;;2083742;28;20040;-89
2022/05/05 01:20:54;;;;;;;4.35;2.40;;;11.10;69.90;;;;;;2089081;28;20025;-88
2022/05/05 01:21:55;;;;;;;6.15;2.00;;;11.10;69.90;;;;;;2082062;28;20037;-89
2022/05/05 01:22:56;;;;;;;4.95;2.47;;;11.10;70.00;;;;;;2085744;28;20032;-89
2022/05/05 01:23:57;;;;;;;6.13;2.42;;;11.10;70.00;;;;;;2078463;28;20128;-88
2022/05/05 01:28:54;;;;;;;3.78;2.00;;;11.00;70.10;;;;;;2078360;28;20033;-89
2022/05/05 01:29:55;;;;;;;5.63;2.40;;;11.00;70.10;;;;;;2076972;28;20026;-89
2022/05/05 01:30:56;;;;;;;4.93;2.50;;;11.00;70.10;;;;;;2081202;28;20046;-89
2022/05/05 01:31:57;;;;;;;4.40;2.20;;;11.00;70.10;;;;;;2083385;28;20464;-88
2022/05/05 01:32:58;;;;;;;4.20;2.30;;;11.00;70.20;;;;;;2087395;28;20037;-89
2022/05/05 01:33:58;;;;;;;4.65;2.28;;;11.00;70.20;;;;;;2087598;28;20038;-89
2022/05/05 01:35:00;;;;;;;5.72;2.67;;;10.90;70.30;;;;;;2091262;28;20029;-89
2022/05/05 01:36:00;;;;;;;5.88;2.80;;;10.90;70.40;;;;;;2082760;28;20487;-88
2022/05/05 01:37:01;;;;;;;5.38;2.42;;;10.90;70.60;;;;;;2074105;28;20061;-89
2022/05/05 01:38:02;;;;;;;5.03;2.50;;;10.90;70.70;;;;;;2072762;28;20038;-89
2022/05/05 01:39:02;;;;;;;4.55;2.13;;;10.90;70.80;;;;;;2080899;28;20099;-89
2022/05/05 01:40:03;;;;;;;5.90;2.28;;;10.80;70.80;;;;;;2087827;28;20060;-89
2022/05/05 01:41:05;;;;;;;3.33;2.28;;;10.80;70.90;;;;;;2079903;28;20093;-87
2022/05/05 01:42:06;;;;;;;5.15;2.35;;;10.80;71.10;;;;;;2081667;28;20029;-89
2022/05/05 01:43:07;;;;;;;4.72;2.42;;;10.80;71.10;;;;;;2082163;28;20028;-88
2022/05/05 01:44:07;;;;;;;4.70;2.38;;;10.80;71.20;;;;;;2082387;28;20028;-88
2022/05/05 01:45:09;;;;;;;4.85;2.45;;;10.80;71.30;;;;;;2088610;28;20068;-88
2022/05/05 01:46:10;;;;;;;5.20;2.35;;;10.70;71.30;;;;;;2087945;28;20045;-88
2022/05/05 01:47:11;;;;;;;4.60;2.05;;;10.70;71.40;;;;;;2070340;28;20022;-88
2022/05/05 01:48:12;;;;;;;5.90;2.70;;;10.70;71.40;;;;;;2064726;28;20166;-89
2022/05/05 01:49:13;;;;;;;4.47;2.30;;;10.70;71.40;;;;;;2070366;28;20092;-89
2022/05/05 01:50:13;;;;;;;6.00;2.30;;;10.70;71.40;;;;;;2075146;28;20451;-88
2022/05/05 01:51:14;;;;;;;5.05;2.40;;;10.70;71.40;;;;;;2082908;28;20056;-88
2022/05/05 01:52:14;;;;;;;4.50;2.38;;;10.70;71.50;;;;;;2075729;28;20030;-88
2022/05/05 01:53:15;;;;;;;4.38;2.17;;;10.70;71.60;;;;;;2073289;28;20041;-88
2022/05/05 01:54:16;;;;;;;4.55;2.55;;;10.70;71.60;;;;;;2076341;28;20080;-89
2022/05/05 01:55:17;;;;;;;4.57;2.63;;;10.70;71.60;;;;;;2082398;28;20041;-89
2022/05/05 01:56:17;;;;;;;5.07;2.75;;;10.60;71.60;;;;;;2087659;28;20079;-88
2022/05/05 01:57:18;;;;;;;5.57;2.50;;;10.60;71.60;;;;;;2091485;28;20032;-89
2022/05/05 01:58:19;;;;;;;4.50;2.47;;;10.60;71.70;;;;;;2082602;28;20033;-88
2022/05/05 01:59:19;;;;;;;5.65;2.40;;;10.60;71.70;;;;;;2080408;28;20061;-89
2022/05/05 02:00:20;;;;;;;6.10;2.63;;;10.60;71.80;;;;;;2068678;28;20030;-89
2022/05/05 02:01:21;;;;;;;5.22;2.70;;;10.60;71.70;;;;;;2072141;28;20034;-89
2022/05/05 02:02:21;;;;;;;4.88;2.50;;;10.60;71.80;;;;;;2074378;28;20576;-89
2022/05/05 02:03:22;;;;;;;5.43;2.70;;;10.60;71.80;;;;;;2075776;28;20029;-88
2022/05/05 02:04:22;;;;;;;4.90;2.45;;;10.60;71.80;;;;;;2092478;28;20375;-89
2022/05/05 02:05:23;;;;;;;4.03;2.58;;;10.60;71.80;;;;;;2071707;28;20124;-89
2022/05/05 02:06:24;;;;;;;7.53;3.10;;;10.60;71.90;;;;;;2073116;28;20034;-89
2022/05/05 02:07:25;;;;;;;6.22;2.80;;;10.50;71.90;;;;;;2073862;28;20061;-89
2022/05/05 02:08:25;;;;;;;4.82;2.33;;;10.50;72.00;;;;;;2074243;28;20030;-89
2022/05/05 02:09:26;;;;;;;5.43;2.60;;;10.50;72.10;;;;;;2080485;28;20034;-88
2022/05/05 02:10:27;;;;;;;4.28;2.47;;;10.50;72.30;;;;;;2080091;28;20033;-89
2022/05/05 02:11:27;;;;;;;5.28;2.42;;;10.50;72.30;;;;;;2079405;28;20407;-89
2022/05/05 02:12:30;;;;;;;3.85;2.40;;;10.40;72.30;;;;;;2089414;28;20057;-89
2022/05/05 02:13:30;;;;;;;5.60;2.50;;;10.40;72.50;;;;;;2074715;28;20030;-89
2022/05/05 02:14:31;;;;;;;5.53;2.70;;;10.40;72.50;;;;;;2069207;28;20036;-89
2022/05/05 02:15:34;;;;;;;4.95;2.75;;;10.40;72.50;;;;;;2081868;28;20080;-89
2022/05/05 02:16:35;;;;;;;5.10;2.45;;;10.40;72.50;;;;;;2088952;28;20492;-88
2022/05/05 02:17:38;;;;;;;3.72;2.17;;;10.40;72.50;;;;;;2073663;28;20129;-89
2022/05/05 02:18:38;;;;;;;5.70;2.78;;;10.40;72.50;;;;;;2066490;28;20026;-89
2022/05/05 02:19:39;;;;;;;4.68;2.40;;;10.40;72.50;;;;;;2079189;28;20515;-89
2022/05/05 02:20:40;;;;;;;4.68;2.67;;;10.40;72.50;;;;;;2074302;28;20033;-88
2022/05/05 02:21:41;;;;;;;4.63;2.80;;;10.40;72.50;;;;;;2070827;28;20061;-89
2022/05/05 02:22:42;;;;;;;4.55;2.60;;;10.30;72.50;;;;;;2078697;28;20062;-89
2022/05/05 02:23:43;;;;;;;5.00;2.50;;;10.30;72.60;;;;;;2071168;28;21127;-89
2022/05/05 02:24:43;;;;;;;5.20;2.60;;;10.30;72.70;;;;;;2062928;28;20038;-89
2022/05/05 02:25:44;;;;;;;6.75;2.83;;;10.30;72.80;;;;;;2074132;28;20496;-89
2022/05/05 02:26:45;;;;;;;4.95;2.70;;;10.20;72.80;;;;;;2069280;28;20034;-89
2022/05/05 02:27:50;;;;;;;5.28;2.38;;;10.20;73.00;;;;;;2072240;28;20122;-88
2022/05/05 02:28:51;;;;;;;4.72;2.60;;;10.10;73.10;;;;;;2076184;28;20030;-88
2022/05/05 02:29:52;;;;;;;6.88;3.00;;;10.20;73.20;;;;;;2089234;28;20025;-88
2022/05/05 02:30:53;;;;;;;6.05;2.45;;;10.20;73.20;;;;;;2082339;28;20053;-88
2022/05/05 02:31:53;;;;;;;4.53;2.42;;;10.10;73.20;;;;;;2074153;28;20022;-88
2022/05/05 02:32:55;;;;;;;4.82;2.60;;;10.10;73.30;;;;;;2074201;28;20029;-89
2022/05/05 02:33:55;;;;;;;6.25;2.97;;;10.10;73.40;;;;;;2072303;28;20047;-88
2022/05/05 02:34:56;;;;;;;4.78;2.50;;;10.00;73.30;;;;;;2073966;28;20042;-89
2022/05/05 02:38:44;;;;;;;5.43;2.33;;;10.00;73.50;;;;;;2079159;28;20037;-89
2022/05/05 02:39:45;;;;;;;4.35;2.72;;;10.00;73.50;;;;;;2077089;28;20057;-89
2022/05/05 02:40:45;;;;;;;6.22;2.55;;;10.00;73.60;;;;;;2081016;28;20040;-89
2022/05/05 02:41:46;;;;;;;6.35;2.38;;;10.00;73.60;;;;;;2077700;28;20186;-89
2022/05/05 02:42:47;;;;;;;4.63;2.58;;;10.00;73.60;;;;;;2080812;28;20058;-89
2022/05/05 02:43:48;;;;;;;4.28;2.20;;;10.00;73.60;;;;;;2079470;28;20088;-89
2022/05/05 02:44:48;;;;;;;5.07;2.60;;;10.00;73.60;;;;;;2070607;28;20038;-89
2022/05/05 02:45:49;;;;;;;4.07;2.20;;;10.00;73.70;;;;;;2068363;28;20022;-88
2022/05/05 02:46:50;;;;;;;4.40;2.40;;;10.00;73.70;;;;;;2079479;28;20033;-89
2022/05/05 02:47:51;;;;;;;5.07;2.72;;;10.00;73.70;;;;;;2077226;28;20539;-88
2022/05/05 02:48:51;;;;;;;4.80;2.53;;;10.00;73.80;;;;;;2065428;28;20109;-89
2022/05/05 02:49:52;;;;;;;4.53;2.40;;;10.00;73.80;;;;;;2073988;28;20201;-89
2022/05/05 02:50:52;;;;;;;5.25;2.83;;;10.00;73.80;;;;;;2089203;28;20506;-88
2022/05/05 02:51:53;;;;;;;5.43;2.50;;;10.00;74.50;;;;;;2091113;28;20098;-89
2022/05/05 02:52:54;;;;;;;5.20;2.70;;;10.00;73.90;;;;;;2087478;28;20029;-88
2022/05/05 02:55:14;;;;;;;4.97;2.90;;;10.00;74.60;;;;;;2067604;28;20041;-89
2022/05/05 02:56:16;;;;;;;3.72;2.30;;;10.00;73.90;;;;;;2083783;28;20081;-88
2022/05/05 02:57:18;;;;;;;6.18;2.85;;;10.00;73.80;;;;;;2070971;28;20041;-89
2022/05/05 02:58:18;;;;;;;4.78;2.40;;;10.00;73.80;;;;;;2069699;28;20109;-89
2022/05/05 02:59:19;;;;;;;4.68;2.50;;;10.00;73.90;;;;;;2089948;28;20044;-88
2022/05/05 03:00:20;;;;;;;6.28;2.78;;;9.90;73.90;;;;;;2091032;28;20032;-89
2022/05/05 03:01:21;;;;;;;6.05;2.90;;;9.90;74.00;;;;;;2077747;28;20053;-89
2022/05/05 03:02:23;;;;;;;6.18;2.63;;;9.90;74.00;;;;;;2057877;28;20497;-89
2022/05/05 03:03:24;;;;;;;3.67;2.45;;;9.90;74.10;;;;;;2062917;28;20023;-89
2022/05/05 03:04:25;;;;;;;5.63;2.38;;;9.90;74.10;;;;;;2066966;28;20054;-89
2022/05/05 03:05:25;;;;;;;4.65;2.50;;;9.90;74.10;;;;;;2065782;28;20409;-88
2022/05/05 03:06:26;;;;;;;6.15;2.80;;;9.90;74.20;;;;;;2055602;28;20066;-89
2022/05/05 03:07:27;;;;;;;4.97;2.60;;;9.90;74.20;;;;;;2057343;28;20034;-89
2022/05/05 03:08:27;;;;;;;5.03;2.70;;;9.90;74.30;;;;;;2069587;28;20054;-89
2022/05/05 03:09:28;;;;;;;4.93;2.47;;;9.90;74.30;;;;;;2060089;28;20065;-89
2022/05/05 03:10:28;;;;;;;3.90;2.70;;;9.90;74.30;;;;;;2067855;28;20045;-88
2022/05/05 03:11:29;;;;;;;3.33;2.08;;;9.90;74.30;;;;;;2079033;28;20447;-89
2022/05/05 03:12:30;;;;;;;4.20;2.60;;;9.90;74.30;;;;;;2073735;28;20037;-89
2022/05/05 03:13:30;;;;;;;4.93;2.90;;;9.90;75.00;;;;;;2080327;28;20025;-89
2022/05/05 03:14:31;;;;;;;4.68;2.72;;;9.80;74.40;;;;;;2069206;28;20045;-89
2022/05/05 03:15:32;;;;;;;5.47;2.67;;;9.80;74.50;;;;;;2077439;28;20102;-89
2022/05/05 03:16:33;;;;;;;5.45;3.00;;;9.80;74.50;;;;;;2089470;28;20043;-89
2022/05/05 03:17:34;;;;;;;5.35;2.88;;;9.70;74.60;;;;;;2080524;28;20026;-89
2022/05/05 03:18:34;;;;;;;5.50;2.85;;;9.70;74.70;;;;;;2071137;28;20045;-89
2022/05/05 03:19:35;;;;;;;5.45;2.70;;;9.70;74.80;;;;;;2071355;28;20027;-88
2022/05/05 03:20:36;;;;;;;6.40;3.35;;;9.70;74.90;;;;;;2073573;28;20036;-89
2022/05/05 03:21:37;;;;;;;5.38;2.90;;;9.70;75.00;;;;;;2080825;28;20037;-88
2022/05/05 03:22:37;;;;;;;5.60;2.70;;;9.70;75.10;;;;;;2089854;28;20096;-89
2022/05/05 03:23:38;;;;;;;4.28;2.70;;;9.70;75.10;;;;;;2065613;28;20484;-89
2022/05/05 03:24:38;;;;;;;4.63;2.60;;;9.60;75.10;;;;;;2057305;28;20051;-89
2022/05/05 03:25:39;;;;;;;6.32;2.83;;;9.60;75.20;;;;;;2068994;28;20396;-89
2022/05/05 03:26:40;;;;;;;6.45;2.78;;;9.60;75.20;;;;;;2081714;28;20033;-89
2022/05/05 03:27:40;;;;;;;6.43;2.85;;;9.70;75.20;;;;;;2090108;28;20048;-89
2022/05/05 03:28:41;;;;;;;6.18;2.90;;;9.70;75.20;;;;;;2090795;28;20036;-89
2022/05/05 03:29:42;;;;;;;4.45;2.72;;;9.60;75.20;;;;;;2089906;28;20108;-89
2022/05/05 03:30:43;;;;;;;5.70;3.08;;;9.70;75.20;;;;;;2081873;28;20507;-89
2022/05/05 03:31:43;;;;;;;5.00;2.90;;;9.70;75.20;;;;;;2077817;28;20037;-89
2022/05/05 03:32:44;;;;;;;5.55;2.90;;;9.60;75.20;;;;;;2088542;28;20491;-89
2022/05/05 03:33:44;;;;;;;5.22;2.55;;;9.70;75.30;;;;;;2080415;28;20026;-89
2022/05/05 03:34:45;;;;;;;6.70;2.67;;;9.60;75.40;;;;;;2079669;28;20056;-89
2022/05/05 03:35:46;;;;;;;5.88;2.80;;;9.60;75.40;;;;;;2089149;28;20032;-89
2022/05/05 03:36:46;;;;;;;5.80;2.83;;;9.60;76.10;;;;;;2068619;28;20077;-89
2022/05/05 03:37:47;;;;;;;5.57;2.83;;;9.60;75.50;;;;;;2057833;28;20027;-88
2022/05/05 03:38:47;;;;;;;4.93;2.72;;;9.60;75.60;;;;;;2075302;28;20554;-89
2022/05/05 03:39:48;;;;;;;4.80;2.60;;;9.60;75.70;;;;;;2081961;28;20037;-89
2022/05/05 03:40:49;;;;;;;5.07;3.00;;;9.60;75.70;;;;;;2072234;28;20109;-88
2022/05/05 03:41:49;;;;;;;5.35;2.90;;;9.60;75.70;;;;;;2070225;28;20041;-88
2022/05/05 03:42:50;;;;;;;6.55;2.88;;;9.60;76.30;;;;;;2083112;28;20487;-88
2022/05/05 03:43:52;;;;;;;6.63;3.15;;;9.60;75.70;;;;;;2075743;28;20049;-89
2022/05/05 03:44:52;;;;;;;5.38;2.83;;;9.60;75.70;;;;;;2074314;28;20027;-89
2022/05/05 03:45:53;;;;;;;4.75;2.80;;;9.60;75.70;;;;;;2088394;28;20033;-88
2022/05/05 03:46:54;;;;;;;6.93;3.10;;;9.60;75.70;;;;;;2065132;28;20469;-88
2022/05/05 03:47:54;;;;;;;4.82;2.97;;;9.60;75.70;;;;;;2057402;28;20062;-89
2022/05/05 03:48:56;;;;;;;4.80;3.08;;;9.60;75.60;;;;;;2066381;28;20099;-88
2022/05/05 03:49:57;;;;;;;4.97;2.70;;;9.60;75.70;;;;;;2076115;28;20038;-89
2022/05/05 03:50:58;;;;;;;5.35;2.78;;;9.60;75.80;;;;;;2072555;28;20082;-89
2022/05/05 03:51:58;;;;;;;7.82;3.42;;;9.60;75.80;;;;;;2080484;28;20029;-89
2022/05/05 03:52:59;;;;;;;6.45;3.30;;;9.60;75.80;;;;;;2072079;28;20037;-87
2022/05/05 03:54:00;;;;;;;5.72;3.03;;;9.60;75.90;;;;;;2074217;28;20030;-87
2022/05/05 03:55:00;;;;;;;5.18;2.90;;;9.60;75.80;;;;;;2081953;28;20108;-89
2022/05/05 03:56:02;;;;;;;7.47;3.08;;;9.60;75.90;;;;;;2079704;28;20403;-89
2022/05/05 03:57:03;;;;;;;5.28;3.15;;;9.60;76.00;;;;;;2073996;28;20516;-89
2022/05/05 03:58:03;;;;;;;5.25;2.78;;;9.60;76.10;;;;;;2059642;28;20062;-89
2022/05/05 03:59:04;;;;;;;5.15;2.88;;;9.60;76.10;;;;;;2072634;28;20097;-88
2022/05/05 04:00:06;;;;;;;5.63;3.05;;;9.60;76.20;;;;;;2061075;28;20031;-88
2022/05/05 04:01:06;;;;;;;5.68;3.30;;;9.60;76.30;;;;;;2059445;28;20015;-89
2022/05/05 04:02:07;;;;;;;6.03;3.42;;;9.60;76.30;;;;;;2080438;28;20525;-89
2022/05/05 04:04:27;;;;;;;4.68;2.60;;;9.50;76.30;;;;;;2078239;28;20045;-89
2022/05/05 04:05:27;;;;;;;5.60;3.00;;;9.50;76.30;;;;;;2084120;28;20040;-88
2022/05/05 04:06:28;;;;;;;5.78;3.00;;;9.50;76.30;;;;;;2084501;28;20385;-89
2022/05/05 04:07:29;;;;;;;7.18;3.08;;;9.50;76.40;;;;;;2079801;28;20029;-88
2022/05/05 04:08:30;;;;;;;5.00;2.88;;;9.50;76.50;;;;;;2077095;28;20470;-89
2022/05/05 04:09:31;;;;;;;4.78;2.85;;;9.50;76.50;;;;;;2085638;28;20453;-89
2022/05/05 04:10:32;;;;;;;5.95;3.03;;;9.50;76.60;;;;;;2089590;28;20044;-89
2022/05/05 04:11:33;;;;;;;6.25;3.28;;;9.50;76.60;;;;;;2073837;28;20048;-89
2022/05/05 04:12:33;;;;;;;7.93;3.20;;;9.50;76.60;;;;;;2073992;28;20029;-89
2022/05/05 04:13:36;;;;;;;5.50;2.92;;;9.50;76.60;;;;;;2060343;28;20035;-89
2022/05/05 04:14:36;;;;;;;8.38;3.50;;;9.60;76.70;;;;;;2060229;28;20030;-89
2022/05/05 04:15:37;;;;;;;5.30;3.15;;;9.50;76.70;;;;;;2074328;28;20038;-88
2022/05/05 04:16:38;;;;;;;6.65;3.35;;;9.60;76.70;;;;;;2077641;28;20052;-89
2022/05/05 04:17:38;;;;;;;7.57;3.40;;;9.60;76.80;;;;;;2071229;28;20041;-89
2022/05/05 04:18:39;;;;;;;5.32;2.97;;;9.50;76.80;;;;;;2073201;28;20121;-89
2022/05/05 04:19:40;;;;;;;5.40;3.33;;;9.50;76.90;;;;;;2076532;28;20057;-89
2022/05/05 04:20:42;;;;;;;4.75;3.00;;;9.50;77.00;;;;;;2065278;28;20057;-88
2022/05/05 04:21:42;;;;;;;5.38;3.00;;;9.50;77.00;;;;;;2065045;28;20022;-89
2022/05/05 04:22:44;;;;;;;6.10;3.00;;;9.50;77.00;;;;;;2069683;28;20062;-89
2022/05/05 04:23:44;;;;;;;5.82;3.22;;;9.50;77.70;;;;;;2079297;28;20025;-88
2022/05/05 04:24:45;;;;;;;6.85;3.63;;;9.50;77.00;;;;;;2078391;28;20049;-88
2022/05/05 04:25:47;;;;;;;6.38;3.35;;;9.60;77.00;;;;;;2063366;28;20026;-88
2022/05/05 04:26:48;;;;;;;5.85;3.42;;;9.60;77.00;;;;;;2073445;28;20025;-89
2022/05/05 04:27:49;;;;;;;6.38;3.20;;;9.60;77.00;;;;;;2068193;28;20393;-89
2022/05/05 04:28:51;;;;;;;5.70;3.10;;;9.60;77.00;;;;;;2063780;28;20133;-88
2022/05/05 04:29:52;;;;;;;5.60;3.20;;;9.60;77.00;;;;;;2071375;28;20133;-89
2022/05/05 04:30:53;;;;;;;5.63;3.33;;;9.60;77.00;;;;;;2071532;28;20104;-88
2022/05/05 04:31:53;;;;;;;5.72;3.42;;;9.60;77.00;;;;;;2081915;28;20025;-88
2022/05/05 04:32:54;;;;;;;7.35;3.35;;;9.60;77.00;;;;;;2079568;28;20025;-88
2022/05/05 04:33:55;;;;;;;6.45;3.05;;;9.60;77.00;;;;;;2073540;28;20076;-88
2022/05/05 04:34:56;;;;;;;6.38;3.20;;;9.70;77.10;;;;;;2081634;28;20029;-89
2022/05/05 04:35:56;;;;;;;6.18;3.05;;;9.70;77.00;;;;;;2077047;28;20030;-89
2022/05/05 04:36:58;;;;;;;5.05;3.45;;;9.70;77.00;;;;;;2062755;28;20429;-89
2022/05/05 04:37:58;;;;;;;5.45;3.03;;;9.70;77.00;;;;;;2064195;28;20113;-89
2022/05/05 04:38:59;;;;;;;5.13;2.72;;;9.70;77.00;;;;;;2072543;28;20037;-88
2022/05/05 04:40:00;;;;;;;5.93;3.10;;;9.80;76.90;;;;;;2069108;28;20573;-89
2022/05/05 04:41:02;;;;;;;5.93;2.90;;;9.80;76.90;;;;;;2070691;28;20049;-88
2022/05/05 04:42:03;;;;;;;6.57;3.13;;;9.80;76.80;;;;;;2071495;28;20026;-89
2022/05/05 04:43:03;;;;;;;6.05;3.20;;;9.80;76.80;;;;;;2073042;28;20038;-89
2022/05/05 04:44:04;;;;;;;6.40;3.33;;;9.80;76.80;;;;;;2081248;28;20056;-89
2022/05/05 04:45:05;;;;;;;6.40;3.08;;;9.90;76.80;;;;;;2080252;28;20033;-88
2022/05/05 04:46:06;;;;;;;5.35;3.10;;;9.90;76.80;;;;;;2073110;28;20052;-89
2022/05/05 04:47:07;;;;;;;5.53;3.00;;;9.90;76.70;;;;;;2073422;28;20029;-88
2022/05/05 04:48:08;;;;;;;5.25;3.20;;;9.90;76.70;;;;;;2061989;28;20046;-89
2022/05/05 04:49:09;;;;;;;4.80;2.95;;;9.90;76.70;;;;;;2071456;28;20033;-89
2022/05/05 04:50:09;;;;;;;4.60;2.97;;;9.90;77.20;;;;;;2077547;28;20033;-89
2022/05/05 04:51:10;;;;;;;5.90;3.15;;;9.90;76.60;;;;;;2068110;28;20121;-88
2022/05/05 04:52:11;;;;;;;5.93;3.03;;;10.00;76.60;;;;;;2080076;28;20021;-88
2022/05/05 04:53:11;;;;;;;6.35;3.13;;;10.00;76.60;;;;;;2081587;28;20069;-88
2022/05/05 04:54:12;;;;;;;7.68;2.67;;;10.00;76.50;;;;;;2072587;28;20018;-88
2022/05/05 04:55:12;;;;;;;5.38;2.95;;;10.00;76.60;;;;;;2060706;28;20035;-89
2022/05/05 04:56:14;;;;;;;5.15;2.90;;;10.00;76.50;;;;;;2064807;28;20068;-89
2022/05/05 04:57:14;;;;;;;5.95;3.15;;;10.10;76.60;;;;;;2065360;28;20390;-89
2022/05/05 04:58:15;;;;;;;5.47;3.03;;;10.10;76.50;;;;;;2071050;28;20048;-89
2022/05/05 04:59:16;;;;;;;6.07;3.10;;;10.10;76.50;;;;;;2072146;28;20076;-89
2022/05/05 05:00:17;;;;;;;5.90;3.03;;;10.10;76.40;;;;;;2077900;28;20479;-88
2022/05/05 05:01:18;;;;;;;5.55;3.15;;;10.10;76.40;;;;;;2074901;28;20512;-89
2022/05/05 05:02:19;;;;;;;6.28;3.17;;;10.20;76.40;;;;;;2070796;28;20025;-89
2022/05/05 05:03:39;;;;;;;6.40;3.08;;;10.20;76.40;;;;;;2081037;28;20475;-89
2022/05/05 05:04:40;;;;;;;4.32;2.80;;;10.20;76.30;;;;;;2068250;28;20061;-89
2022/05/05 05:05:40;;;;;;;5.35;2.63;;;10.20;76.30;;;;;;2070134;28;20033;-88
2022/05/05 05:06:41;;;;;;;5.65;3.00;;;10.20;76.20;;;;;;2077800;28;20121;-88
2022/05/05 05:07:41;;;;;;;6.82;3.33;;;10.20;76.20;;;;;;2081981;28;20060;-88
2022/05/05 05:08:44;;;;;;;6.32;3.10;;;10.30;76.20;;;;;;2082736;28;20033;-88
2022/05/05 05:09:45;;;;;;;4.93;3.03;;;10.30;76.20;;;;;;2082720;28;20060;-88
2022/05/05 05:10:46;;;;;;;4.43;2.70;;;10.30;76.20;;;;;;2082984;28;20061;-88
2022/05/05 05:11:47;;;;;;;5.35;3.00;;;10.30;76.20;;;;;;2081369;28;20084;-89
2022/05/05 05:12:48;;;;;;;5.32;2.88;;;10.40;76.20;;;;;;2071522;28;20034;-88
2022/05/05 05:13:49;;;;;;;5.45;3.03;;;10.40;76.10;;;;;;2072207;28;20056;-88
2022/05/05 05:14:49;;;;;;;6.60;3.60;;;10.40;76.10;;;;;;2070349;28;20427;-88
2022/05/05 05:15:50;;;;;;;5.13;3.10;;;10.50;76.10;;;;;;2080095;28;20026;-88
2022/05/05 05:16:51;;;;;;;6.85;3.00;;;10.50;76.00;;;;;;2077805;28;20037;-88
2022/05/05 05:17:51;;;;;;;6.30;3.30;;;10.50;76.00;;;;;;2079206;28;20033;-88
2022/05/05 05:18:53;;;;;;;5.38;3.10;;;10.50;75.90;;;;;;2080997;28;20075;-89
2022/05/05 05:19:54;;;;;;;6.68;3.00;;;10.50;75.90;;;;;;2080830;28;20024;-89
2022/05/05 05:20:55;;;;;;;5.45;3.10;;;10.60;75.90;;;;;;2079606;28;20029;-89
2022/05/05 05:21:55;;;;;;;6.20;3.28;;;10.60;75.80;;;;;;2089574;28;20108;-89
2022/05/05 05:22:56;;;;;;;7.65;3.20;;;10.60;75.70;;;;;;2079349;28;20160;-89
2022/05/05 05:23:57;;;;;;;5.53;3.20;;;10.70;75.80;;;;;;2081156;28;20037;-88
2022/05/05 05:24:57;;;;;;;6.15;3.38;;;10.70;76.30;;;;;;2085559;28;20036;-89
2022/05/05 05:25:58;;;;;;;6.18;3.03;;;10.70;75.60;;;;;;2084391;28;20033;-88
2022/05/05 05:26:59;;;;;;;5.32;3.42;;;10.70;75.50;;;;;;2082292;28;20038;-89
2022/05/05 05:28:00;;;;;;;6.10;3.40;;;10.80;75.90;;;;;;2076325;28;20053;-88
2022/05/05 05:29:00;;;;;;;5.75;3.60;;;10.80;75.40;;;;;;2089982;28;20060;-88
2022/05/05 05:30:01;;;;;;;5.90;3.30;;;10.90;76.00;;;;;;2081012;28;20033;-89
2022/05/05 05:31:02;;;;;;;6.28;3.22;;;10.90;75.30;;;;;;2069598;28;20467;-88
2022/05/05 05:32:03;;;;;;;5.90;3.35;;;10.90;75.10;;;;;;2072722;28;20053;-89